To NAV CANADA Home Page Login to a new session Search on AWWS site Disclaimer Vers la page française équivalente Tips FAQ What's new on the site To the Forecasts and Observations / NOTAM section To "File a Flight Plan" website Publications and other links Update of the User's profile FIC Telephone Numbers My Weather Data Folder Route Weather Data Regional Weather Data Local Weather Data To the Forecasts and Observations / NOTAM section
Request Generated 04/22/2019 at 12:57:41 UTC . Weather information available at that time is displayed.

METAR/TAF

KITCHENER/WATERLOO/ON    (show WxCam)

SPECI CYKF 221256Z AUTO 00000KT 6SM BR OVC140 08/07 A3024 RMK SLP246=
METAR CYKF 221200Z AUTO 00000KT 3SM BR OVC130 06/06 A3023 RMK SLP245=
SPECI CYKF 221146Z AUTO 36002KT 3SM BR OVC130 06/06 A3023 RMK SLP243=
SPECI CYKF 221129Z AUTO 00000KT 2 1/2SM BR OVC130 05/05 A3022 RMK SLP241=
METAR CYKF 221100Z AUTO 00000KT 4SM BR OVC110 05/05 A3022 RMK SLP239=
SPECI CYKF 221045Z AUTO 36004KT 3SM BR BKN110 OVC130 05/05 A3021 RMK SLP237=
SPECI CYKF 221024Z AUTO 34003KT 2SM BR SCT120 04/04 A3020 RMK SLP235=
SPECI CYKF 221013Z AUTO 34004KT 3/4SM BR CLR 04/03 A3020 RMK SLP233=
SPECI CYKF 221003Z AUTO 35003KT 1SM -RA BR FEW120 04/04 A3020 RMK SLP234=
METAR CYKF 221000Z AUTO 35003KT 1 1/4SM BR FEW120 04/04 A3020 RMK VIS VRB 3/4-2 SLP233=

TAF AMD CYKF 220947Z 2209/2220 VRB03KT 11/2SM BR BKN100 TEMPO
2209/2212 6SM BR
BECMG 2212/2214 P6SM NSW
FM221400 13006KT P6SM SCT100
BECMG 2218/2220 20007KT
RMK FCST BASED ON AUTO OBS. AUTO OBS REP NON-REPRESENTATIVE PCPN.
NXT FCST BY 221400Z=

BORDEN/ON    

METAR CYBN 221200Z AUTO 12002KT 9SM FEW089 07/07 A3023 RMK SLP244=
METAR CYBN 221100Z AUTO 00000KT 9SM FEW091 04/04 A3022 RMK SLP237=
SPECI CYBN 221029Z AUTO 16002KT 3SM CLR 02/02 A3021=
SPECI CYBN 221026Z AUTO 17002KT 1 1/4SM FEW001 02/02 A3021 RMK VSBY VRBL 0.5V8.0=
SPECI CYBN 221024Z AUTO 19002KT 5/8SM FEW001 02/02 A3021 RMK VSBY VRBL 0.3V5.0=
SPECI CYBN 221023Z AUTO 00000KT 5/8SM BKN001 02/02 A3021 RMK VSBY VRBL 0.3V4.0=
SPECI CYBN 221019Z AUTO 00000KT 3/8SM BKN001 BKN006 02/02 A3021=
SPECI CYBN 221018Z AUTO 00000KT 3/8SM BKN006 02/02 A3021=
SPECI CYBN 221005Z AUTO 19002KT 1/4SM SCT006 01/01 A3021=
METAR CYBN 221001Z AUTO 20002KT 3/8SM BKN006 01/01 A3021=
SPECI CYBN 220959Z AUTO 19002KT 1/2SM BKN006 01/01 A3021=

TAF CYBN 221132Z 2212/2224 VRB03KT P6SM BKN080 TEMPO 2212/2214 1SM BR
BKN006 BKN080
BECMG 2215/2217 14008KT
RMK FCST BASED ON AUTO OBS. NXT FCST BY 221800Z=

MUSKOKA/ON    (show WxCam)

SPECI CYQA 221207Z AUTO 00000KT 9SM BKN090 OVC110 06/06 A3023 RMK SLP244=
METAR CYQA 221200Z AUTO 00000KT 9SM -RA OVC090 06/06 A3023 RMK SLP244=
SPECI CYQA 221153Z AUTO 00000KT 9SM -RA OVC090 06/06 A3023 RMK SLP243=
METAR CYQA 221100Z AUTO 00000KT 9SM OVC100 05/05 A3021 RMK SLP238=
METAR CYQA 221000Z AUTO 00000KT 9SM OVC095 05/05 A3020 RMK SLP233=

TAF CYQA 221139Z 2212/2224 VRB03KT P6SM OVC090
FM221800 15006KT P6SM SCT025 BKN100 TEMPO 2218/2221 BKN025
FM222100 15006KT P6SM FEW025
RMK FCST BASED ON AUTO OBS. NXT FCST BY 221400Z=

HAMILTON/ON    

METAR CYHM 221200Z 18004KT 15SM FEW030 BKN110 BKN120 05/05 A3024 RMK SC2AC3AC2 SLP249=
METAR CYHM 221100Z 20003KT 8SM FEW035 BKN110 BKN130 05/05 A3023 RMK SC2AC4AC1 SLP243=
METAR CYHM 221000Z 17005KT 15SM BKN110 BKN120 05/05 A3021 RMK AC5AC2 SLP236=

TAF CYHM 221139Z 2212/2312 VRB03KT P6SM BKN120
BECMG 2213/2215 08005KT
FM221700 05008KT P6SM SCT100 PROB30 2304/2312 21/2SM BR
RMK NXT FCST BY 221800Z=

WIARTON/ON    

METAR CYVV 221200Z 00000KT 15SM BKN070 06/04 A3022 RMK AC7 SLP240=
METAR CYVV 221100Z 13006KT 15SM BKN070 07/06 A3020 RMK AC7 SLP234=
METAR CYVV 221000Z VRB03KT 15SM SCT080 BKN140 BKN250 04/03 A3020 RMK AC4AC1CI1 CI TR SLP233=

TAF CYVV 221038Z 2211/2223 VRB03KT P6SM BKN080 TEMPO 2211/2218 SCT080
FM221800 19008KT P6SM FEW030
RMK NXT FCST BY 221400Z=

SARNIA (CHRIS HADFIELD)/ON    (show WxCam)

METAR CYZR 221200Z AUTO 17005KT 9SM OVC150 08/06 A3021 RMK SLP235=
METAR CYZR 221100Z AUTO 19006KT 9SM OVC140 08/05 A3019 RMK SLP226=
METAR CYZR 221000Z AUTO 16007KT 9SM BKN130 OVC150 07/05 A3018 RMK SLP225=

TAF CYZR 220738Z 2208/2220 VRB03KT P6SM SCT100
BECMG 2213/2215 18012KT
RMK FCST BASED ON AUTO OBS. NXT FCST BY 221400Z=

LONDON/ON    

METAR CYXU 221200Z 00000KT 10SM BKN130 06/06 A3023 RMK AC7 SLP244=
METAR CYXU 221100Z 08004KT 8SM BKN130 05/05 A3021 RMK AC7 SLP237=
METAR CYXU 221000Z 08003KT 020V080 8SM BKN140 BKN260 04/04 A3020 RMK AC7CI1 CI TR SLP234=

TAF CYXU 221139Z 2212/2312 VRB03KT P6SM BKN120
BECMG 2213/2215 16007KT
FM221500 16007KT P6SM SCT120
FM221900 17008KT P6SM FEW140
BECMG 2300/2302 13007KT
FM230900 14010KT P6SM BKN120
RMK NXT FCST BY 221800Z=

ST. CATHARINES/NIAGARA DISTRICT/ON    

METAR CYSN 221200Z 23005KT 10SM OVC031 07/06 A3024 RMK SC8 WND ESTD SLP244=
METAR CYSN 221100Z 23005KT 10SM OVC032 07/06 A3023 RMK SC8 WND ESTD SLP241=
LWIS CYSN 221000Z AUTO /////KT=

TAF CYSN 221238Z 2213/2301 23005KT P6SM OVC030 TEMPO 2213/2218 SCT030
BKN100
BECMG 2216/2218 36006KT
FM221800 36006KT P6SM SCT100
BECMG 2222/2224 VRB03KT
RMK NXT FCST BY 222000Z=
Your time UTC time
Weather data provided by Environment Canada and NAV CANADA